sensor_id;sensor_type;location;lat;lon;timestamp;P1;durP1;ratioP1;P2;durP2;ratioP2
17714;SDS011;8977;50.902;4.314;2022-11-15T00:00:48;16.67;;;13.67;;
17714;SDS011;8977;50.902;4.314;2022-11-15T00:03:15;18.13;;;14.27;;
17714;SDS011;8977;50.902;4.314;2022-11-15T00:05:45;18.17;;;15.03;;
17714;SDS011;8977;50.902;4.314;2022-11-15T00:08:12;16.17;;;13.03;;
17714;SDS011;8977;50.902;4.314;2022-11-15T00:10:39;17.70;;;13.87;;
17714;SDS011;8977;50.902;4.314;2022-11-15T00:13:06;16.13;;;13.63;;
17714;SDS011;8977;50.902;4.314;2022-11-15T00:15:36;20.43;;;14.20;;
17714;SDS011;8977;50.902;4.314;2022-11-15T00:18:04;15.60;;;12.97;;
17714;SDS011;8977;50.902;4.314;2022-11-15T00:20:33;17.47;;;14.63;;
17714;SDS011;8977;50.902;4.314;2022-11-15T00:23:01;21.97;;;14.63;;
17714;SDS011;8977;50.902;4.314;2022-11-15T00:25:29;18.83;;;13.63;;
17714;SDS011;8977;50.902;4.314;2022-11-15T00:27:56;20.27;;;15.67;;
17714;SDS011;8977;50.902;4.314;2022-11-15T00:30:26;16.20;;;14.20;;
17714;SDS011;8977;50.902;4.314;2022-11-15T00:33:05;20.37;;;16.30;;
17714;SDS011;8977;50.902;4.314;2022-11-15T00:35:39;15.90;;;13.37;;
17714;SDS011;8977;50.902;4.314;2022-11-15T00:38:17;21.20;;;16.53;;
17714;SDS011;8977;50.902;4.314;2022-11-15T00:40:49;19.70;;;13.97;;
17714;SDS011;8977;50.902;4.314;2022-11-15T00:43:16;19.53;;;14.60;;
17714;SDS011;8977;50.902;4.314;2022-11-15T00:45:57;20.10;;;15.10;;
17714;SDS011;8977;50.902;4.314;2022-11-15T00:48:27;17.00;;;14.00;;
17714;SDS011;8977;50.902;4.314;2022-11-15T00:51:03;19.77;;;15.33;;
17714;SDS011;8977;50.902;4.314;2022-11-15T00:53:33;18.97;;;15.20;;
17714;SDS011;8977;50.902;4.314;2022-11-15T00:56:00;18.50;;;15.30;;
17714;SDS011;8977;50.902;4.314;2022-11-15T00:58:27;22.57;;;15.07;;
17714;SDS011;8977;50.902;4.314;2022-11-15T01:01:04;16.97;;;14.63;;
17714;SDS011;8977;50.902;4.314;2022-11-15T01:03:32;18.70;;;14.20;;
17714;SDS011;8977;50.902;4.314;2022-11-15T01:05:59;18.67;;;14.03;;
17714;SDS011;8977;50.902;4.314;2022-11-15T01:08:26;17.67;;;14.90;;
17714;SDS011;8977;50.902;4.314;2022-11-15T01:10:54;22.83;;;15.23;;
17714;SDS011;8977;50.902;4.314;2022-11-15T01:13:28;20.97;;;15.53;;
17714;SDS011;8977;50.902;4.314;2022-11-15T01:15:56;20.87;;;14.30;;
17714;SDS011;8977;50.902;4.314;2022-11-15T01:18:24;16.50;;;14.70;;
17714;SDS011;8977;50.902;4.314;2022-11-15T01:20:55;17.07;;;14.17;;
17714;SDS011;8977;50.902;4.314;2022-11-15T01:23:27;17.40;;;14.20;;
17714;SDS011;8977;50.902;4.314;2022-11-15T01:25:59;21.60;;;16.23;;
17714;SDS011;8977;50.902;4.314;2022-11-15T01:28:29;20.30;;;14.90;;
17714;SDS011;8977;50.902;4.314;2022-11-15T01:30:57;18.83;;;14.97;;
17714;SDS011;8977;50.902;4.314;2022-11-15T01:33:24;18.90;;;15.33;;
17714;SDS011;8977;50.902;4.314;2022-11-15T01:35:51;18.70;;;15.13;;
17714;SDS011;8977;50.902;4.314;2022-11-15T01:38:18;18.63;;;14.93;;
17714;SDS011;8977;50.902;4.314;2022-11-15T01:40:47;21.10;;;14.53;;
17714;SDS011;8977;50.902;4.314;2022-11-15T01:43:23;18.63;;;15.07;;
17714;SDS011;8977;50.902;4.314;2022-11-15T01:45:52;17.57;;;14.63;;
17714;SDS011;8977;50.902;4.314;2022-11-15T01:48:22;19.87;;;15.20;;
17714;SDS011;8977;50.902;4.314;2022-11-15T01:50:54;17.20;;;14.20;;
17714;SDS011;8977;50.902;4.314;2022-11-15T01:53:21;19.20;;;14.43;;
17714;SDS011;8977;50.902;4.314;2022-11-15T01:55:51;17.40;;;14.07;;
17714;SDS011;8977;50.902;4.314;2022-11-15T01:58:19;16.53;;;13.67;;
17714;SDS011;8977;50.902;4.314;2022-11-15T02:00:47;17.53;;;13.27;;
17714;SDS011;8977;50.902;4.314;2022-11-15T02:03:16;15.93;;;12.83;;
17714;SDS011;8977;50.902;4.314;2022-11-15T02:05:43;17.33;;;12.67;;
17714;SDS011;8977;50.902;4.314;2022-11-15T02:08:10;16.33;;;12.30;;
17714;SDS011;8977;50.902;4.314;2022-11-15T02:10:44;18.83;;;12.97;;
17714;SDS011;8977;50.902;4.314;2022-11-15T02:13:12;16.90;;;12.73;;
17714;SDS011;8977;50.902;4.314;2022-11-15T02:15:40;15.77;;;12.67;;
17714;SDS011;8977;50.902;4.314;2022-11-15T02:18:20;16.63;;;12.83;;
17714;SDS011;8977;50.902;4.314;2022-11-15T02:20:55;18.37;;;11.97;;
17714;SDS011;8977;50.902;4.314;2022-11-15T02:23:50;18.57;;;11.97;;
17714;SDS011;8977;50.902;4.314;2022-11-15T02:26:46;13.17;;;11.37;;
17714;SDS011;8977;50.902;4.314;2022-11-15T02:29:48;12.90;;;11.00;;
17714;SDS011;8977;50.902;4.314;2022-11-15T02:32:31;14.47;;;11.03;;
17714;SDS011;8977;50.902;4.314;2022-11-15T02:35:09;13.87;;;11.40;;
17714;SDS011;8977;50.902;4.314;2022-11-15T02:37:43;14.70;;;11.27;;
17714;SDS011;8977;50.902;4.314;2022-11-15T02:40:16;16.97;;;12.70;;
17714;SDS011;8977;50.902;4.314;2022-11-15T02:42:49;16.87;;;12.67;;
17714;SDS011;8977;50.902;4.314;2022-11-15T02:45:37;15.33;;;11.80;;
17714;SDS011;8977;50.902;4.314;2022-11-15T02:48:09;16.13;;;12.77;;
17714;SDS011;8977;50.902;4.314;2022-11-15T02:50:37;15.57;;;11.37;;
17714;SDS011;8977;50.902;4.314;2022-11-15T02:53:04;15.03;;;10.83;;
17714;SDS011;8977;50.902;4.314;2022-11-15T02:55:33;14.73;;;11.63;;
17714;SDS011;8977;50.902;4.314;2022-11-15T02:58:06;14.93;;;11.07;;
17714;SDS011;8977;50.902;4.314;2022-11-15T03:00:45;16.77;;;11.83;;
17714;SDS011;8977;50.902;4.314;2022-11-15T03:06:15;16.70;;;11.20;;
17714;SDS011;8977;50.902;4.314;2022-11-15T03:08:53;15.10;;;11.70;;
17714;SDS011;8977;50.902;4.314;2022-11-15T03:11:24;14.93;;;11.50;;
17714;SDS011;8977;50.902;4.314;2022-11-15T03:13:53;15.70;;;11.03;;
17714;SDS011;8977;50.902;4.314;2022-11-15T03:16:27;14.10;;;10.03;;
17714;SDS011;8977;50.902;4.314;2022-11-15T03:19:02;11.43;;;9.17;;
17714;SDS011;8977;50.902;4.314;2022-11-15T03:21:33;12.00;;;9.37;;
17714;SDS011;8977;50.902;4.314;2022-11-15T03:24:02;12.77;;;9.40;;
17714;SDS011;8977;50.902;4.314;2022-11-15T03:26:32;12.03;;;8.70;;
17714;SDS011;8977;50.902;4.314;2022-11-15T03:29:03;10.97;;;8.97;;
17714;SDS011;8977;50.902;4.314;2022-11-15T03:31:34;13.80;;;8.60;;
17714;SDS011;8977;50.902;4.314;2022-11-15T03:34:18;11.73;;;8.40;;
17714;SDS011;8977;50.902;4.314;2022-11-15T03:36:50;11.83;;;8.07;;
17714;SDS011;8977;50.902;4.314;2022-11-15T03:39:18;9.40;;;7.60;;
17714;SDS011;8977;50.902;4.314;2022-11-15T03:41:47;13.00;;;7.97;;
17714;SDS011;8977;50.902;4.314;2022-11-15T03:44:20;10.57;;;7.00;;
17714;SDS011;8977;50.902;4.314;2022-11-15T03:46:55;10.00;;;6.63;;
17714;SDS011;8977;50.902;4.314;2022-11-15T03:49:29;10.47;;;7.37;;
17714;SDS011;8977;50.902;4.314;2022-11-15T03:51:59;7.83;;;6.40;;
17714;SDS011;8977;50.902;4.314;2022-11-15T03:54:27;13.73;;;7.60;;
17714;SDS011;8977;50.902;4.314;2022-11-15T03:56:54;9.60;;;7.03;;
17714;SDS011;8977;50.902;4.314;2022-11-15T03:59:21;12.63;;;6.80;;
17714;SDS011;8977;50.902;4.314;2022-11-15T04:01:48;9.03;;;6.60;;
17714;SDS011;8977;50.902;4.314;2022-11-15T04:04:15;8.10;;;6.13;;
17714;SDS011;8977;50.902;4.314;2022-11-15T04:06:43;9.03;;;6.57;;
17714;SDS011;8977;50.902;4.314;2022-11-15T04:09:10;7.87;;;7.07;;
17714;SDS011;8977;50.902;4.314;2022-11-15T04:11:39;9.53;;;6.70;;
17714;SDS011;8977;50.902;4.314;2022-11-15T04:14:05;7.90;;;6.50;;
17714;SDS011;8977;50.902;4.314;2022-11-15T04:16:32;7.37;;;6.47;;
17714;SDS011;8977;50.902;4.314;2022-11-15T04:18:59;9.00;;;6.43;;
17714;SDS011;8977;50.902;4.314;2022-11-15T04:21:44;8.53;;;6.33;;
17714;SDS011;8977;50.902;4.314;2022-11-15T04:24:29;9.20;;;6.70;;
17714;SDS011;8977;50.902;4.314;2022-11-15T04:26:55;9.90;;;6.77;;
17714;SDS011;8977;50.902;4.314;2022-11-15T04:29:22;9.17;;;6.27;;
17714;SDS011;8977;50.902;4.314;2022-11-15T04:32:01;9.73;;;7.07;;
17714;SDS011;8977;50.902;4.314;2022-11-15T04:34:28;9.47;;;6.57;;
17714;SDS011;8977;50.902;4.314;2022-11-15T04:36:59;8.73;;;6.90;;
17714;SDS011;8977;50.902;4.314;2022-11-15T04:39:37;8.90;;;6.30;;
17714;SDS011;8977;50.902;4.314;2022-11-15T04:42:07;8.17;;;6.73;;
17714;SDS011;8977;50.902;4.314;2022-11-15T04:44:35;8.77;;;6.47;;
17714;SDS011;8977;50.902;4.314;2022-11-15T04:47:02;11.77;;;6.70;;
17714;SDS011;8977;50.902;4.314;2022-11-15T04:49:29;7.63;;;5.87;;
17714;SDS011;8977;50.902;4.314;2022-11-15T04:51:56;11.07;;;6.50;;
17714;SDS011;8977;50.902;4.314;2022-11-15T04:54:24;9.17;;;5.43;;
17714;SDS011;8977;50.902;4.314;2022-11-15T04:56:51;6.03;;;5.40;;
17714;SDS011;8977;50.902;4.314;2022-11-15T04:59:18;8.60;;;5.27;;
17714;SDS011;8977;50.902;4.314;2022-11-15T05:01:44;6.63;;;5.03;;
17714;SDS011;8977;50.902;4.314;2022-11-15T05:04:11;8.27;;;5.40;;
17714;SDS011;8977;50.902;4.314;2022-11-15T05:06:47;7.57;;;4.87;;
17714;SDS011;8977;50.902;4.314;2022-11-15T05:09:15;6.87;;;4.23;;
17714;SDS011;8977;50.902;4.314;2022-11-15T05:11:46;7.47;;;4.07;;
17714;SDS011;8977;50.902;4.314;2022-11-15T05:14:14;6.40;;;4.27;;
17714;SDS011;8977;50.902;4.314;2022-11-15T05:16:41;6.40;;;4.03;;
17714;SDS011;8977;50.902;4.314;2022-11-15T05:19:08;6.47;;;4.10;;
17714;SDS011;8977;50.902;4.314;2022-11-15T05:21:35;8.43;;;4.27;;
17714;SDS011;8977;50.902;4.314;2022-11-15T05:24:02;7.13;;;4.10;;
17714;SDS011;8977;50.902;4.314;2022-11-15T05:26:32;8.47;;;4.20;;
17714;SDS011;8977;50.902;4.314;2022-11-15T05:29:04;5.90;;;3.70;;
17714;SDS011;8977;50.902;4.314;2022-11-15T05:31:42;8.23;;;4.00;;
17714;SDS011;8977;50.902;4.314;2022-11-15T05:34:17;5.40;;;4.07;;
17714;SDS011;8977;50.902;4.314;2022-11-15T05:36:46;6.40;;;4.57;;
17714;SDS011;8977;50.902;4.314;2022-11-15T05:39:13;7.97;;;4.40;;
17714;SDS011;8977;50.902;4.314;2022-11-15T05:41:41;9.03;;;4.77;;
17714;SDS011;8977;50.902;4.314;2022-11-15T05:44:15;6.13;;;4.40;;
17714;SDS011;8977;50.902;4.314;2022-11-15T05:46:45;9.17;;;4.87;;
17714;SDS011;8977;50.902;4.314;2022-11-15T05:49:17;5.90;;;4.37;;
17714;SDS011;8977;50.902;4.314;2022-11-15T05:51:48;6.77;;;4.30;;
17714;SDS011;8977;50.902;4.314;2022-11-15T05:54:19;8.00;;;4.63;;
17714;SDS011;8977;50.902;4.314;2022-11-15T05:56:48;8.80;;;4.43;;
17714;SDS011;8977;50.902;4.314;2022-11-15T05:59:16;5.63;;;3.67;;
17714;SDS011;8977;50.902;4.314;2022-11-15T06:01:44;7.17;;;3.97;;
17714;SDS011;8977;50.902;4.314;2022-11-15T06:04:11;5.40;;;3.60;;
17714;SDS011;8977;50.902;4.314;2022-11-15T06:06:38;6.97;;;4.30;;
17714;SDS011;8977;50.902;4.314;2022-11-15T06:09:05;5.83;;;4.20;;
17714;SDS011;8977;50.902;4.314;2022-11-15T06:11:31;7.77;;;3.70;;
17714;SDS011;8977;50.902;4.314;2022-11-15T06:13:58;7.47;;;3.80;;
17714;SDS011;8977;50.902;4.314;2022-11-15T06:16:27;7.13;;;3.87;;
17714;SDS011;8977;50.902;4.314;2022-11-15T06:18:53;6.27;;;3.67;;
17714;SDS011;8977;50.902;4.314;2022-11-15T06:21:20;4.40;;;3.50;;
17714;SDS011;8977;50.902;4.314;2022-11-15T06:23:47;6.03;;;3.60;;
17714;SDS011;8977;50.902;4.314;2022-11-15T06:26:14;5.53;;;3.77;;
17714;SDS011;8977;50.902;4.314;2022-11-15T06:28:41;7.37;;;3.97;;
17714;SDS011;8977;50.902;4.314;2022-11-15T06:31:11;5.57;;;3.63;;
17714;SDS011;8977;50.902;4.314;2022-11-15T06:33:39;6.20;;;3.33;;
17714;SDS011;8977;50.902;4.314;2022-11-15T06:36:07;7.33;;;4.03;;
17714;SDS011;8977;50.902;4.314;2022-11-15T06:38:35;6.07;;;3.93;;
17714;SDS011;8977;50.902;4.314;2022-11-15T06:41:02;5.70;;;3.83;;
17714;SDS011;8977;50.902;4.314;2022-11-15T06:43:35;6.73;;;3.90;;
17714;SDS011;8977;50.902;4.314;2022-11-15T06:46:02;5.47;;;3.97;;
17714;SDS011;8977;50.902;4.314;2022-11-15T06:48:31;4.97;;;3.70;;
17714;SDS011;8977;50.902;4.314;2022-11-15T06:51:01;5.73;;;3.87;;
17714;SDS011;8977;50.902;4.314;2022-11-15T06:53:29;6.03;;;4.10;;
17714;SDS011;8977;50.902;4.314;2022-11-15T06:55:58;8.83;;;4.53;;
17714;SDS011;8977;50.902;4.314;2022-11-15T06:58:26;5.57;;;3.83;;
17714;SDS011;8977;50.902;4.314;2022-11-15T07:00:53;6.90;;;3.77;;
17714;SDS011;8977;50.902;4.314;2022-11-15T07:03:24;6.03;;;3.77;;
17714;SDS011;8977;50.902;4.314;2022-11-15T07:05:51;6.93;;;3.60;;
17714;SDS011;8977;50.902;4.314;2022-11-15T07:08:21;6.20;;;3.70;;
17714;SDS011;8977;50.902;4.314;2022-11-15T07:10:48;7.93;;;4.17;;
17714;SDS011;8977;50.902;4.314;2022-11-15T07:13:15;7.60;;;4.17;;
17714;SDS011;8977;50.902;4.314;2022-11-15T07:15:43;5.77;;;3.93;;
17714;SDS011;8977;50.902;4.314;2022-11-15T07:18:09;5.67;;;3.80;;
17714;SDS011;8977;50.902;4.314;2022-11-15T07:20:36;6.47;;;3.70;;
17714;SDS011;8977;50.902;4.314;2022-11-15T07:23:05;6.00;;;3.90;;
17714;SDS011;8977;50.902;4.314;2022-11-15T07:25:33;4.33;;;3.43;;
17714;SDS011;8977;50.902;4.314;2022-11-15T07:28:00;5.00;;;3.60;;
17714;SDS011;8977;50.902;4.314;2022-11-15T07:30:27;4.73;;;3.37;;
17714;SDS011;8977;50.902;4.314;2022-11-15T07:32:54;4.90;;;3.50;;
17714;SDS011;8977;50.902;4.314;2022-11-15T07:35:22;8.93;;;3.23;;
17714;SDS011;8977;50.902;4.314;2022-11-15T07:37:53;5.70;;;3.63;;
17714;SDS011;8977;50.902;4.314;2022-11-15T07:40:20;6.17;;;3.73;;
17714;SDS011;8977;50.902;4.314;2022-11-15T07:42:49;5.63;;;3.70;;
17714;SDS011;8977;50.902;4.314;2022-11-15T07:45:20;5.37;;;3.70;;
17714;SDS011;8977;50.902;4.314;2022-11-15T07:47:48;6.60;;;3.47;;
17714;SDS011;8977;50.902;4.314;2022-11-15T07:50:15;5.43;;;3.40;;
17714;SDS011;8977;50.902;4.314;2022-11-15T07:52:42;7.03;;;3.17;;
17714;SDS011;8977;50.902;4.314;2022-11-15T07:55:09;5.87;;;3.63;;
17714;SDS011;8977;50.902;4.314;2022-11-15T07:57:37;7.10;;;3.47;;
17714;SDS011;8977;50.902;4.314;2022-11-15T08:00:06;6.07;;;3.40;;
17714;SDS011;8977;50.902;4.314;2022-11-15T08:02:33;3.70;;;3.00;;
17714;SDS011;8977;50.902;4.314;2022-11-15T08:05:00;6.07;;;3.60;;
17714;SDS011;8977;50.902;4.314;2022-11-15T08:07:28;4.03;;;3.07;;
17714;SDS011;8977;50.902;4.314;2022-11-15T08:09:56;5.70;;;3.20;;
17714;SDS011;8977;50.902;4.314;2022-11-15T08:12:23;5.20;;;3.30;;
17714;SDS011;8977;50.902;4.314;2022-11-15T08:14:49;4.87;;;3.10;;
17714;SDS011;8977;50.902;4.314;2022-11-15T08:17:18;6.77;;;3.53;;
17714;SDS011;8977;50.902;4.314;2022-11-15T08:19:44;6.80;;;2.97;;
17714;SDS011;8977;50.902;4.314;2022-11-15T08:22:11;7.37;;;2.97;;
17714;SDS011;8977;50.902;4.314;2022-11-15T08:24:38;5.63;;;3.10;;
17714;SDS011;8977;50.902;4.314;2022-11-15T08:27:05;4.53;;;2.60;;
17714;SDS011;8977;50.902;4.314;2022-11-15T08:29:40;5.97;;;2.53;;
17714;SDS011;8977;50.902;4.314;2022-11-15T08:32:07;6.10;;;2.90;;
17714;SDS011;8977;50.902;4.314;2022-11-15T08:34:36;6.13;;;2.63;;
17714;SDS011;8977;50.902;4.314;2022-11-15T08:37:03;7.07;;;2.53;;
17714;SDS011;8977;50.902;4.314;2022-11-15T08:39:30;4.87;;;2.73;;
17714;SDS011;8977;50.902;4.314;2022-11-15T08:41:57;4.83;;;2.63;;
17714;SDS011;8977;50.902;4.314;2022-11-15T08:44:24;4.90;;;2.50;;
17714;SDS011;8977;50.902;4.314;2022-11-15T08:46:54;3.20;;;2.60;;
17714;SDS011;8977;50.902;4.314;2022-11-15T08:49:21;4.70;;;2.97;;
17714;SDS011;8977;50.902;4.314;2022-11-15T08:51:49;5.37;;;2.50;;
17714;SDS011;8977;50.902;4.314;2022-11-15T08:54:16;4.67;;;2.70;;
17714;SDS011;8977;50.902;4.314;2022-11-15T08:56:42;3.30;;;2.50;;
17714;SDS011;8977;50.902;4.314;2022-11-15T08:59:09;6.00;;;2.30;;
17714;SDS011;8977;50.902;4.314;2022-11-15T09:01:36;5.77;;;2.53;;
17714;SDS011;8977;50.902;4.314;2022-11-15T09:04:03;5.00;;;2.37;;
17714;SDS011;8977;50.902;4.314;2022-11-15T09:06:30;3.87;;;1.97;;
17714;SDS011;8977;50.902;4.314;2022-11-15T09:08:59;6.33;;;2.10;;
17714;SDS011;8977;50.902;4.314;2022-11-15T09:11:26;5.30;;;2.03;;
17714;SDS011;8977;50.902;4.314;2022-11-15T09:13:53;7.03;;;2.07;;
17714;SDS011;8977;50.902;4.314;2022-11-15T09:16:20;5.03;;;2.07;;
17714;SDS011;8977;50.902;4.314;2022-11-15T09:18:47;4.00;;;2.00;;
17714;SDS011;8977;50.902;4.314;2022-11-15T09:21:16;7.10;;;2.50;;
17714;SDS011;8977;50.902;4.314;2022-11-15T09:23:43;5.57;;;2.20;;
17714;SDS011;8977;50.902;4.314;2022-11-15T09:26:14;3.53;;;1.87;;
17714;SDS011;8977;50.902;4.314;2022-11-15T09:28:41;4.20;;;2.00;;
17714;SDS011;8977;50.902;4.314;2022-11-15T09:31:12;6.43;;;2.40;;
17714;SDS011;8977;50.902;4.314;2022-11-15T09:33:39;5.53;;;2.20;;
17714;SDS011;8977;50.902;4.314;2022-11-15T09:36:09;4.97;;;2.03;;
17714;SDS011;8977;50.902;4.314;2022-11-15T09:38:39;8.93;;;2.23;;
17714;SDS011;8977;50.902;4.314;2022-11-15T09:41:25;4.80;;;2.13;;
17714;SDS011;8977;50.902;4.314;2022-11-15T09:44:05;6.37;;;2.20;;
17714;SDS011;8977;50.902;4.314;2022-11-15T09:46:42;8.60;;;2.00;;
17714;SDS011;8977;50.902;4.314;2022-11-15T09:49:16;3.20;;;2.30;;
17714;SDS011;8977;50.902;4.314;2022-11-15T09:51:45;4.70;;;2.00;;
17714;SDS011;8977;50.902;4.314;2022-11-15T09:54:18;4.07;;;1.93;;
17714;SDS011;8977;50.902;4.314;2022-11-15T09:57:02;5.77;;;1.70;;
17714;SDS011;8977;50.902;4.314;2022-11-15T09:59:40;4.93;;;1.93;;
17714;SDS011;8977;50.902;4.314;2022-11-15T10:02:27;5.20;;;1.73;;
17714;SDS011;8977;50.902;4.314;2022-11-15T10:05:06;3.60;;;1.70;;
17714;SDS011;8977;50.902;4.314;2022-11-15T10:07:37;6.83;;;2.20;;
17714;SDS011;8977;50.902;4.314;2022-11-15T10:10:12;6.07;;;1.67;;
17714;SDS011;8977;50.902;4.314;2022-11-15T10:12:44;4.57;;;1.90;;
17714;SDS011;8977;50.902;4.314;2022-11-15T10:15:15;3.93;;;1.53;;
17714;SDS011;8977;50.902;4.314;2022-11-15T10:18:01;6.77;;;1.90;;
17714;SDS011;8977;50.902;4.314;2022-11-15T10:20:34;5.57;;;1.80;;
17714;SDS011;8977;50.902;4.314;2022-11-15T10:23:10;6.37;;;1.47;;
17714;SDS011;8977;50.902;4.314;2022-11-15T10:25:40;5.10;;;1.50;;
17714;SDS011;8977;50.902;4.314;2022-11-15T10:28:11;4.27;;;1.70;;
17714;SDS011;8977;50.902;4.314;2022-11-15T10:30:41;4.10;;;1.37;;
17714;SDS011;8977;50.902;4.314;2022-11-15T10:33:16;3.37;;;1.63;;
17714;SDS011;8977;50.902;4.314;2022-11-15T10:35:51;4.93;;;1.40;;
17714;SDS011;8977;50.902;4.314;2022-11-15T10:38:52;4.80;;;1.40;;
17714;SDS011;8977;50.902;4.314;2022-11-15T10:41:21;6.70;;;1.50;;
17714;SDS011;8977;50.902;4.314;2022-11-15T10:47:03;6.30;;;1.30;;
17714;SDS011;8977;50.902;4.314;2022-11-15T10:49:33;7.53;;;1.60;;
17714;SDS011;8977;50.902;4.314;2022-11-15T10:52:01;5.57;;;1.60;;
17714;SDS011;8977;50.902;4.314;2022-11-15T10:54:31;6.17;;;1.40;;
17714;SDS011;8977;50.902;4.314;2022-11-15T10:57:04;5.47;;;1.80;;
17714;SDS011;8977;50.902;4.314;2022-11-15T10:59:35;3.70;;;1.20;;
17714;SDS011;8977;50.902;4.314;2022-11-15T11:04:56;4.83;;;1.83;;
17714;SDS011;8977;50.902;4.314;2022-11-15T11:07:24;3.47;;;1.70;;
17714;SDS011;8977;50.902;4.314;2022-11-15T11:09:56;4.67;;;1.83;;
17714;SDS011;8977;50.902;4.314;2022-11-15T11:12:29;5.63;;;1.73;;
17714;SDS011;8977;50.902;4.314;2022-11-15T11:15:00;8.07;;;1.87;;
17714;SDS011;8977;50.902;4.314;2022-11-15T11:17:48;7.90;;;2.03;;
17714;SDS011;8977;50.902;4.314;2022-11-15T11:20:23;3.93;;;1.60;;
17714;SDS011;8977;50.902;4.314;2022-11-15T11:23:03;4.30;;;1.90;;
17714;SDS011;8977;50.902;4.314;2022-11-15T11:25:44;6.17;;;1.90;;
17714;SDS011;8977;50.902;4.314;2022-11-15T11:28:19;5.00;;;2.23;;
17714;SDS011;8977;50.902;4.314;2022-11-15T11:30:58;5.57;;;1.87;;
17714;SDS011;8977;50.902;4.314;2022-11-15T11:33:35;4.70;;;1.77;;
17714;SDS011;8977;50.902;4.314;2022-11-15T11:36:11;6.20;;;1.73;;
17714;SDS011;8977;50.902;4.314;2022-11-15T11:38:53;7.13;;;1.80;;
17714;SDS011;8977;50.902;4.314;2022-11-15T11:41:43;4.27;;;1.57;;
17714;SDS011;8977;50.902;4.314;2022-11-15T11:44:23;3.77;;;1.33;;
17714;SDS011;8977;50.902;4.314;2022-11-15T11:46:58;3.93;;;1.50;;
17714;SDS011;8977;50.902;4.314;2022-11-15T11:49:29;5.00;;;1.57;;
17714;SDS011;8977;50.902;4.314;2022-11-15T11:52:02;3.53;;;1.10;;
17714;SDS011;8977;50.902;4.314;2022-11-15T11:54:37;3.73;;;1.57;;
17714;SDS011;8977;50.902;4.314;2022-11-15T11:57:10;4.27;;;1.40;;
17714;SDS011;8977;50.902;4.314;2022-11-15T11:59:42;6.73;;;1.80;;
17714;SDS011;8977;50.902;4.314;2022-11-15T12:02:16;4.63;;;1.40;;
17714;SDS011;8977;50.902;4.314;2022-11-15T12:04:47;4.73;;;2.10;;
17714;SDS011;8977;50.902;4.314;2022-11-15T12:07:19;3.67;;;1.40;;
17714;SDS011;8977;50.902;4.314;2022-11-15T12:09:51;5.53;;;1.40;;
17714;SDS011;8977;50.902;4.314;2022-11-15T12:12:27;3.90;;;1.47;;
17714;SDS011;8977;50.902;4.314;2022-11-15T12:15:00;2.93;;;1.33;;
17714;SDS011;8977;50.902;4.314;2022-11-15T12:17:31;4.63;;;1.23;;
17714;SDS011;8977;50.902;4.314;2022-11-15T12:19:58;3.03;;;1.40;;
17714;SDS011;8977;50.902;4.314;2022-11-15T12:22:33;3.83;;;1.43;;
17714;SDS011;8977;50.902;4.314;2022-11-15T12:25:05;5.33;;;1.43;;
17714;SDS011;8977;50.902;4.314;2022-11-15T12:27:40;5.47;;;1.50;;
17714;SDS011;8977;50.902;4.314;2022-11-15T12:30:12;5.03;;;1.83;;
17714;SDS011;8977;50.902;4.314;2022-11-15T12:32:49;3.50;;;1.33;;
17714;SDS011;8977;50.902;4.314;2022-11-15T12:35:30;4.77;;;1.20;;
17714;SDS011;8977;50.902;4.314;2022-11-15T12:38:02;4.10;;;1.50;;
17714;SDS011;8977;50.902;4.314;2022-11-15T12:40:30;7.20;;;1.93;;
17714;SDS011;8977;50.902;4.314;2022-11-15T12:46:05;8.27;;;2.27;;
17714;SDS011;8977;50.902;4.314;2022-11-15T12:57:26;4.50;;;2.43;;
17714;SDS011;8977;50.902;4.314;2022-11-15T13:00:20;5.13;;;2.10;;
17714;SDS011;8977;50.902;4.314;2022-11-15T13:03:22;6.00;;;1.90;;
17714;SDS011;8977;50.902;4.314;2022-11-15T13:06:03;4.37;;;1.90;;
17714;SDS011;8977;50.902;4.314;2022-11-15T13:08:41;5.00;;;2.10;;
17714;SDS011;8977;50.902;4.314;2022-11-15T13:19:58;3.63;;;1.63;;
17714;SDS011;8977;50.902;4.314;2022-11-15T13:22:43;2.40;;;1.37;;
17714;SDS011;8977;50.902;4.314;2022-11-15T13:25:18;3.43;;;1.60;;
17714;SDS011;8977;50.902;4.314;2022-11-15T13:28:01;5.53;;;1.70;;
17714;SDS011;8977;50.902;4.314;2022-11-15T13:30:38;3.03;;;1.60;;
17714;SDS011;8977;50.902;4.314;2022-11-15T13:33:07;2.87;;;1.47;;
17714;SDS011;8977;50.902;4.314;2022-11-15T13:35:36;4.50;;;1.60;;
17714;SDS011;8977;50.902;4.314;2022-11-15T13:38:12;2.47;;;1.47;;
17714;SDS011;8977;50.902;4.314;2022-11-15T13:40:45;2.20;;;1.60;;
17714;SDS011;8977;50.902;4.314;2022-11-15T13:43:17;4.03;;;1.60;;
17714;SDS011;8977;50.902;4.314;2022-11-15T13:46:03;3.37;;;1.60;;
17714;SDS011;8977;50.902;4.314;2022-11-15T13:48:36;2.17;;;1.23;;
17714;SDS011;8977;50.902;4.314;2022-11-15T13:51:04;3.30;;;1.40;;
17714;SDS011;8977;50.902;4.314;2022-11-15T13:53:35;2.80;;;1.37;;
17714;SDS011;8977;50.902;4.314;2022-11-15T13:56:06;3.43;;;1.40;;
17714;SDS011;8977;50.902;4.314;2022-11-15T13:58:33;2.23;;;1.50;;
17714;SDS011;8977;50.902;4.314;2022-11-15T14:01:04;1.37;;;1.10;;
17714;SDS011;8977;50.902;4.314;2022-11-15T14:03:32;2.67;;;1.77;;
17714;SDS011;8977;50.902;4.314;2022-11-15T14:06:07;1.90;;;1.30;;
17714;SDS011;8977;50.902;4.314;2022-11-15T14:08:38;2.13;;;1.43;;
17714;SDS011;8977;50.902;4.314;2022-11-15T14:11:12;3.50;;;1.47;;
17714;SDS011;8977;50.902;4.314;2022-11-15T14:13:41;2.63;;;1.30;;
17714;SDS011;8977;50.902;4.314;2022-11-15T14:16:31;3.70;;;1.70;;
17714;SDS011;8977;50.902;4.314;2022-11-15T14:18:59;5.17;;;1.83;;
17714;SDS011;8977;50.902;4.314;2022-11-15T14:21:26;3.60;;;1.63;;
17714;SDS011;8977;50.902;4.314;2022-11-15T14:23:54;3.47;;;1.50;;
17714;SDS011;8977;50.902;4.314;2022-11-15T14:26:40;3.13;;;1.40;;
17714;SDS011;8977;50.902;4.314;2022-11-15T14:29:23;2.30;;;1.37;;
17714;SDS011;8977;50.902;4.314;2022-11-15T14:31:51;2.67;;;1.50;;
17714;SDS011;8977;50.902;4.314;2022-11-15T14:34:18;2.80;;;1.67;;
17714;SDS011;8977;50.902;4.314;2022-11-15T14:36:46;1.90;;;1.70;;
17714;SDS011;8977;50.902;4.314;2022-11-15T14:39:14;2.67;;;1.70;;
17714;SDS011;8977;50.902;4.314;2022-11-15T14:41:41;2.23;;;1.63;;
17714;SDS011;8977;50.902;4.314;2022-11-15T14:44:09;3.47;;;1.90;;
17714;SDS011;8977;50.902;4.314;2022-11-15T14:46:37;3.30;;;1.77;;
17714;SDS011;8977;50.902;4.314;2022-11-15T14:49:04;3.07;;;1.80;;
17714;SDS011;8977;50.902;4.314;2022-11-15T14:51:31;2.07;;;1.80;;
17714;SDS011;8977;50.902;4.314;2022-11-15T14:53:59;3.47;;;1.90;;
17714;SDS011;8977;50.902;4.314;2022-11-15T14:56:27;2.27;;;1.90;;
17714;SDS011;8977;50.902;4.314;2022-11-15T14:58:54;3.20;;;1.93;;
17714;SDS011;8977;50.902;4.314;2022-11-15T15:01:21;2.93;;;2.03;;
17714;SDS011;8977;50.902;4.314;2022-11-15T15:03:50;4.77;;;2.00;;
17714;SDS011;8977;50.902;4.314;2022-11-15T15:06:20;3.07;;;2.20;;
17714;SDS011;8977;50.902;4.314;2022-11-15T15:08:47;3.17;;;2.23;;
17714;SDS011;8977;50.902;4.314;2022-11-15T15:11:16;4.47;;;2.37;;
17714;SDS011;8977;50.902;4.314;2022-11-15T15:13:48;4.00;;;2.30;;
17714;SDS011;8977;50.902;4.314;2022-11-15T15:16:15;4.07;;;2.40;;
17714;SDS011;8977;50.902;4.314;2022-11-15T15:18:42;3.80;;;2.43;;
17714;SDS011;8977;50.902;4.314;2022-11-15T15:21:17;4.43;;;2.80;;
17714;SDS011;8977;50.902;4.314;2022-11-15T15:23:46;3.07;;;2.40;;
17714;SDS011;8977;50.902;4.314;2022-11-15T15:26:13;3.27;;;2.60;;
17714;SDS011;8977;50.902;4.314;2022-11-15T15:28:40;3.27;;;2.50;;
17714;SDS011;8977;50.902;4.314;2022-11-15T15:31:09;5.23;;;2.47;;
17714;SDS011;8977;50.902;4.314;2022-11-15T15:33:36;4.87;;;2.57;;
17714;SDS011;8977;50.902;4.314;2022-11-15T15:36:03;5.67;;;2.80;;
17714;SDS011;8977;50.902;4.314;2022-11-15T15:38:30;3.67;;;2.67;;
17714;SDS011;8977;50.902;4.314;2022-11-15T15:40:57;3.63;;;2.63;;
17714;SDS011;8977;50.902;4.314;2022-11-15T15:43:27;2.33;;;2.13;;
17714;SDS011;8977;50.902;4.314;2022-11-15T15:45:53;4.00;;;2.53;;
17714;SDS011;8977;50.902;4.314;2022-11-15T15:48:22;3.13;;;2.60;;